福岡空港の過去48時間の天気

福岡空港 (Fukuoka)

現在時刻: 7/23 03:27 JST (7/22 18:27 UTC) 以下の時間は現地時間です。

過去48時間のMETAR気象情報
時間 風向 風速(m/s) 視程 気温(℃) 湿度(%) 気圧(hPa) 天気現象
23 03:00 東南東 1 10km以上 27 84 1009
23 02:30 不定 1 10km以上 27 84 1009
23 02:00 東南東 1 10km以上 27 89 1009
23 01:30 東南東 1 10km以上 27 84 1009
23 01:00 南南東 2 10km以上 27 89 1009
23 00:30 東南東 2 10km以上 27 89 1009
23 00:00 東南東 2 10km以上 27 89 1009
22 23:30 東南東 2 10km以上 27 89 1009
22 23:00 南南東 2 10km以上 27 89 1009
22 22:30 南南東 2 10km以上 27 89 1010
22 22:00 南東 3 10km以上 27 89 1010
22 21:30 東南東 2 10km以上 27 89 1010
22 21:00 東南東 2 10km以上 28 84 1010 弱い雨
22 20:30 不定 1 10km以上 27 84 1010 弱い雨
22 20:00 不定 1 10km以上 27 84 1010 弱い雨
22 19:30 2 10km以上 27 89 1010 弱いしゅう雨
22 19:20 南南東 2 10km以上 27 89 1010 弱い雷雨
22 19:00 南南東 4 10km以上 27 89 1009 弱いしゅう雨
22 18:30 南東 2 10km以上 27 89 1009 弱いしゅう雨
22 18:00 南南東 2 10km以上 28 84 1009 弱いしゅう雨
22 17:30 2 10km以上 27 84 1009
22 17:00 北東 3 10km以上 27 79 1009 弱い雷雨
22 16:30 4 10km以上 26 89 1009 弱い雷雨
22 16:17 東北東 4 6000m 27 84 1009 雷雨
22 16:06 3 4000m 27 89 1010 雷雨
22 16:00 西北西 2 2500m 27 89 1009 強い雷雨
22 15:48 西 5 1500m 27 89 1009 強い雷雨
22 15:37 西 5 300m 32 63 1008 強い雷雨
22 15:30 北西 6 10km以上 33 59 1007 強い雷雨
22 15:08 西 5 10km以上 35 53 1007 雷 周辺でしゅう雨
22 15:00 西 5 10km以上 35 53 1007 周辺でしゅう雨
22 14:30 南東 3 10km以上 36 50 1007
22 14:00 3 10km以上 37 47 1007
22 13:30 不定 2 10km以上 36 50 1008
22 13:00 南南東 4 10km以上 36 50 1008
22 12:30 南南東 4 10km以上 35 53 1008
22 12:00 南南東 5 10km以上 35 53 1008
22 11:30 南南東 4 10km以上 36 47 1008
22 11:00 不定 2 10km以上 35 53 1008
22 10:30 不定 2 10km以上 33 59 1009
22 10:00 不定 2 10km以上 32 63 1009
22 09:30 不定 1 10km以上 31 62 1009
22 09:00 南東 2 10km以上 31 62 1009
22 08:30 東南東 3 10km以上 30 66 1009
22 08:00 南南東 3 10km以上 30 66 1009
22 07:30 不定 1 10km以上 29 70 1009
22 07:00 不定 1 10km以上 29 70 1009
22 06:30 不定 1 10km以上 29 70 1009
22 06:00 東南東 1 10km以上 28 74 1008
22 05:30 北北東 2 10km以上 28 74 1008
22 05:00 東北東 3 10km以上 28 70 1008
22 04:30 北東 2 10km以上 29 66 1008
RJFF 221800Z AUTO 12002KT 9999 SCT038 SCT041 BKN042 27/24 Q1009 RMK A2981
RJFF 221730Z AUTO VRB02KT 9999 FEW038 SCT046 27/24 Q1009 RMK A2982
RJFF 221700Z AUTO 12002KT 9999 FEW038 BKN200 27/25 Q1009 RMK A2981
RJFF 221630Z AUTO 12002KT 9999 FEW038 BKN200 27/24 Q1009 RMK A2981
RJFF 221600Z AUTO 15003KT 9999 FEW038 BKN170 BKN190 27/25 Q1009 RMK A2981
RJFF 221530Z AUTO 12003KT 9999 NSC 27/25 Q1009 RMK A2982
RJFF 221500Z AUTO 12003KT 9999 NSC 27/25 Q1009 RMK A2982
RJFF 221430Z AUTO 11004KT 9999 NCD 27/25 Q1009 RMK A2982
RJFF 221400Z AUTO 15004KT 9999 NCD 27/25 Q1009 RMK A2982
RJFF 221330Z 16004KT 9999 FEW015 BKN/// 27/25 Q1010
RJFF 221300Z 13005KT 9999 FEW015 BKN/// 27/25 Q1010 RMK 1CU015 A2983
RJFF 221230Z 12004KT 080V140 9999 FEW015 BKN/// 27/25 Q1010
RJFF 221200Z 12003KT 070V160 9999 -RA FEW020 SCT050 BKN/// 28/25 Q1010
RJFF 221130Z VRB02KT 9999 -RA FEW020 SCT060 BKN080 27/24 Q1010 RMK 1CU020 4SC060 6AC080 A2984
RJFF 221100Z VRB02KT 9999 -RA FEW015 SCT060 BKN080 27/24 Q1010 RMK 1CU015 3SC060 5AC080 A2983
RJFF 221030Z 10003KT 030V180 9999 -SHRA FEW015 SCT040 BKN110 27/25 Q1010 RMK 1CU015 3CU040 5AC110 A2982
RJFF 221020Z 15004KT 100V180 9999 -TSRA FEW015 FEW030CB SCT040 BKN120 27/25 Q1010 RMK 1CU015 1CB030 3CU040 5AC120 A2982 FBL TS 20KM SE MOV N
RJFF 221000Z 15007KT 9999 -SHRA FEW015 SCT045 BKN120 27/25 Q1009 RMK 1CU015 3CU045 5AC120 A2982
RJFF 220930Z 14003KT 110V170 9999 -SHRA FEW015 SCT040 BKN080 27/25 Q1009 RMK 1CU015 3CU040 5AC080 A2981 LIGHTNING E-SE
RJFF 220900Z 16004KT 120V190 9999 -SHRA FEW030 SCT045 BKN160 28/25 Q1009 RMK 1CU030 3CU045 6AC160 A2980 LIGHTNING SE
RJFF 220830Z 18003KT 140V210 9999 TS FEW015 FEW040CB BKN/// 27/24 Q1009 RMK 1CU015 1CB040 A2981 FBL TS 20KM E MOV N
RJFF 220800Z 04005KT 330V090 9999 -TSRA FEW015 SCT035 FEW045CB BKN060 27/23 Q1009 RMK 1CU015 3CU035 1CB045 5SC060 A2979 FBL TS 15KM NE-E MOV N
RJFF 220730Z 08007KT 9999 -TSRA FEW010 SCT035 FEW045CB BKN050 26/24 Q1009 RMK 1CU010 3CU035 2CB045 5SC050 A2980 FBL TS 15KM N-E MOV N
RJFF 220717Z 07007KT 350V110 6000 R34/2000N TSRA FEW010 SCT035 BKN045CB 27/24 Q1009 RMK 1CU010 3CU035 5CB045 A2982 MOD TS OHD MOV N
RJFF 220706Z 35006KT 320V040 4000 R34/1400VP2000U TSRA FEW015 SCT025 BKN040CB 27/25 Q1010 RMK 1CU015 3CU025 5CB040 A2983 MOD TS OHD MOV N P/RR
RJFF 220700Z 30003KT 210V360 2500 R16/0600V1700D +TSRA FEW015 SCT020 BKN025 BKN040CB 27/25 Q1009
RJFF 220648Z 28010G21KT 240V320 1500 R16/0450VP2000U +TSRA FEW020 SCT025 BKN040CB 27/25 Q1009 RMK 1CU020 4CU025 6CB040 A2979 HVY TS OHD MOV N P/RR RI++
RJFF 220637Z 26009KT 0300 R34/1200VP2000N +TSRA FEW020 SCT030 BKN045CB 32/24 Q1008 RMK 1CU020 3CU030 5CB045 A2978 HVY TS OHD MOV N
RJFF 220630Z 32012KT 9999 +TSRA FEW025 BKN045CB BKN070 33/24 Q1007 RMK 1CU025 5CB045 6AC070 A2975 MOD TS 5KM S-SW AND 15KM N MOV N
RJFF 220608Z 28009KT 250V320 9999 TS VCSH FEW030 BKN045 FEW045CB BKN/// 35/24 Q1007 RMK 1CU030 5CU045 2CB045 A2975 FBL TS 10KM S MOV N
RJFF 220600Z 28009KT 9999 VCSH FEW030 SCT045 FEW045CB BKN/// 35/24 Q1007 RMK 1CU030 4CU045 1CB045 A2974 CB 10KM NW AND 20KM S MOV N
RJFF 220530Z 14005KT 080V190 9999 FEW030 SCT045 BKN/// 36/24 Q1007
RJFF 220500Z 08006KT 030V170 9999 FEW025 SCT045 BKN/// 37/24 Q1007 RMK 1CU025 3CU045 A2976
RJFF 220430Z VRB04KT 9999 FEW025 BKN/// 36/24 Q1008
RJFF 220400Z 16008KT 120V210 9999 FEW025 BKN/// 36/24 Q1008
RJFF 220330Z 16007KT 9999 FEW030 SCT040 BKN/// 35/24 Q1008
RJFF 220300Z 16010KT 120V210 9999 FEW030 SCT040 BKN/// 35/24 Q1008
RJFF 220230Z 15008KT 110V210 9999 FEW030 SCT160 BKN/// 36/23 Q1008 RMK 1CU030 3AC160 A2979
RJFF 220200Z VRB04KT 9999 FEW030 SCT160 BKN/// 35/24 Q1008
RJFF 220130Z VRB03KT 9999 FEW030 BKN/// 33/24 Q1009
RJFF 220100Z VRB03KT 9999 FEW030 BKN/// 32/24 Q1009
RJFF 220030Z VRB01KT 9999 FEW025 BKN/// 31/23 Q1009 RMK 1CU025 A2980
RJFF 220000Z 13004KT 090V180 9999 FEW025 BKN/// 31/23 Q1009 RMK 1CU025 A2981
RJFF 212330Z 12005KT 9999 FEW025 BKN/// 30/23 Q1009
RJFF 212300Z 16005KT 9999 FEW020 BKN/// 30/23 Q1009
RJFF 212230Z VRB02KT 9999 FEW015 BKN/// 29/23 Q1009
RJFF 212200Z VRB01KT 9999 FEW015 BKN/// 29/23 Q1009 RMK 1CU015 A2980
RJFF 212130Z VRB02KT 9999 FEW015 SCT130 BKN/// 29/23 Q1009
RJFF 212100Z 11001KT 9999 FEW015 SCT130 BKN/// 28/23 Q1008
RJFF 212030Z AUTO 03003KT 300V080 9999 NSC 28/23 Q1008 RMK A2978
RJFF 212000Z AUTO 06005KT 9999 NSC 28/22 Q1008 RMK A2978
RJFF 211930Z AUTO 05004KT 9999 NSC 29/22 Q1008 RMK A2978